Time;durP1;ratioP1;P1;durP2;ratioP2;P2;SDS_P1;SDS_P2;PMS_P1;PMS_P2;Temp;Humidity;BMP_temperature;BMP_pressure;BME280_temperature;BME280_humidity;BME280_pressure;Samples;Min_cycle;Max_cycle;Signal;HPM_P1;HPM_P2
2022/11/06 00:01:22;;;;;;;8.10;5.67;;;6.60;99.90;;;;;;5034726;28;20864;-67
2022/11/06 00:03:51;;;;;;;9.20;7.07;;;6.50;99.90;;;;;;5035615;28;20203;-67
2022/11/06 00:09:07;;;;;;;8.20;6.40;;;6.40;99.90;;;;;;5025799;28;20261;-66
2022/11/06 00:11:32;;;;;;;9.37;5.20;;;6.40;99.90;;;;;;5025115;28;20199;-66
2022/11/06 00:14:00;;;;;;;14.73;6.80;;;6.30;99.90;;;;;;5027533;28;20210;-63
2022/11/06 00:16:25;;;;;;;9.63;6.30;;;6.30;99.90;;;;;;5024140;28;20206;-67
2022/11/06 00:18:51;;;;;;;11.90;7.00;;;6.30;99.90;;;;;;5027389;28;20208;-65
2022/11/06 00:21:23;;;;;;;8.27;5.97;;;6.20;99.90;;;;;;5030482;28;20211;-66
2022/11/06 00:23:50;;;;;;;9.00;5.20;;;6.20;99.90;;;;;;5035299;28;20207;-69
2022/11/06 00:26:18;;;;;;;13.23;6.77;;;6.20;99.90;;;;;;5033989;28;20198;-69
2022/11/06 00:28:44;;;;;;;11.27;6.40;;;6.20;99.90;;;;;;5023300;28;20206;-66
2022/11/06 00:31:12;;;;;;;11.43;5.97;;;6.20;99.90;;;;;;5026914;28;20207;-69
2022/11/06 00:33:38;;;;;;;14.50;6.47;;;6.10;99.90;;;;;;5027196;28;20212;-66
2022/11/06 00:36:08;;;;;;;7.90;5.80;;;6.10;99.90;;;;;;5024819;28;20198;-67
2022/11/06 00:38:33;;;;;;;8.10;5.87;;;6.10;99.90;;;;;;5027552;28;20329;-65
2022/11/06 00:41:07;;;;;;;8.73;5.40;;;6.10;99.90;;;;;;5024169;28;21025;-65
2022/11/06 00:43:34;;;;;;;9.17;6.73;;;6.10;99.90;;;;;;5025985;28;20206;-65
2022/11/06 00:46:02;;;;;;;12.37;6.00;;;6.10;99.90;;;;;;5026028;28;20253;-66
2022/11/06 00:48:27;;;;;;;12.30;6.10;;;6.10;99.90;;;;;;5023661;28;20357;-65
2022/11/06 00:50:53;;;;;;;15.00;6.23;;;6.10;99.90;;;;;;5026732;28;21024;-64
2022/11/06 00:53:18;;;;;;;11.13;6.70;;;6.10;99.90;;;;;;5026037;28;20215;-66
2022/11/06 00:55:44;;;;;;;10.03;6.03;;;6.10;99.90;;;;;;5026025;28;20228;-66
2022/11/06 00:58:09;;;;;;;11.40;7.20;;;6.10;99.90;;;;;;5026539;28;20250;-69
2022/11/06 01:00:35;;;;;;;10.00;6.77;;;6.10;99.90;;;;;;5028137;28;20195;-67
2022/11/06 01:03:00;;;;;;;8.07;6.37;;;6.10;99.90;;;;;;5024125;28;20286;-67
2022/11/06 01:05:26;;;;;;;15.67;6.33;;;6.10;99.90;;;;;;5025345;28;20198;-67
2022/11/06 01:07:52;;;;;;;11.13;5.87;;;6.10;99.90;;;;;;5025761;28;20199;-66
2022/11/06 01:10:17;;;;;;;8.87;6.30;;;6.10;99.90;;;;;;5034886;28;20242;-65
2022/11/06 01:12:43;;;;;;;7.50;6.10;;;6.00;99.90;;;;;;5033137;28;20198;-65
2022/11/06 01:15:08;;;;;;;8.50;6.30;;;6.00;99.90;;;;;;5027571;28;20948;-65
2022/11/06 01:17:34;;;;;;;9.37;6.17;;;6.00;99.90;;;;;;5023845;28;20222;-65
2022/11/06 01:20:00;;;;;;;9.00;5.93;;;6.00;99.90;;;;;;5032645;28;20203;-66
2022/11/06 01:22:25;;;;;;;8.20;6.77;;;6.00;99.90;;;;;;5026008;28;20204;-66
2022/11/06 01:24:51;;;;;;;10.93;7.10;;;6.00;99.90;;;;;;5026383;28;20286;-66
2022/11/06 01:27:16;;;;;;;9.07;6.47;;;6.00;99.90;;;;;;5026212;28;20211;-66
2022/11/06 01:29:42;;;;;;;8.70;6.33;;;6.00;99.90;;;;;;5026415;28;20241;-65
2022/11/06 01:32:08;;;;;;;11.40;6.63;;;6.00;99.90;;;;;;5024931;28;20203;-67
2022/11/06 01:34:33;;;;;;;15.33;7.43;;;6.00;99.90;;;;;;5029157;28;20203;-68
2022/11/06 01:36:59;;;;;;;9.17;6.67;;;6.00;99.90;;;;;;5033330;28;20780;-66
2022/11/06 01:39:24;;;;;;;11.00;7.17;;;6.00;99.90;;;;;;5033358;28;20900;-66
2022/11/06 01:41:51;;;;;;;7.23;6.50;;;6.00;99.90;;;;;;5029189;28;20662;-67
2022/11/06 01:44:32;;;;;;;8.10;6.63;;;6.10;99.90;;;;;;5027105;28;20230;-66
2022/11/06 01:47:03;;;;;;;8.37;6.93;;;6.10;99.90;;;;;;5031001;28;20198;-65
2022/11/06 01:49:33;;;;;;;9.70;6.27;;;6.10;99.90;;;;;;5027990;28;20746;-66
2022/11/06 01:52:04;;;;;;;10.33;6.03;;;6.10;99.90;;;;;;5029164;28;20203;-65
2022/11/06 01:54:32;;;;;;;11.13;7.13;;;6.10;99.90;;;;;;5035282;28;20991;-65
2022/11/06 01:57:00;;;;;;;9.93;6.17;;;6.10;99.90;;;;;;5028506;28;20227;-65
2022/11/06 01:59:28;;;;;;;12.50;7.47;;;6.10;99.90;;;;;;5033843;28;20222;-67
2022/11/06 02:01:54;;;;;;;12.40;6.80;;;6.10;99.90;;;;;;5032206;28;20209;-66
2022/11/06 02:04:23;;;;;;;11.70;6.80;;;6.10;99.90;;;;;;5026424;28;20199;-66
2022/11/06 02:06:49;;;;;;;12.03;6.23;;;6.20;99.90;;;;;;5029441;28;20214;-66
2022/11/06 02:09:15;;;;;;;14.87;6.70;;;6.20;99.90;;;;;;5026528;28;20195;-66
2022/11/06 02:11:44;;;;;;;10.07;7.37;;;6.20;99.90;;;;;;5028613;28;20202;-66
2022/11/06 02:14:22;;;;;;;11.97;6.73;;;6.20;99.90;;;;;;5028542;28;20227;-66
2022/11/06 02:17:08;;;;;;;14.70;6.93;;;6.20;99.90;;;;;;5026615;28;20219;-66
2022/11/06 02:19:42;;;;;;;11.83;6.73;;;6.20;99.90;;;;;;5029890;28;20347;-67
2022/11/06 02:22:43;;;;;;;9.20;6.13;;;6.20;99.90;;;;;;5029111;28;20238;-67
2022/11/06 02:25:25;;;;;;;11.00;6.80;;;6.20;99.90;;;;;;5025379;28;20195;-67
2022/11/06 02:28:02;;;;;;;7.60;6.57;;;6.10;99.90;;;;;;5026805;28;20217;-66
2022/11/06 02:30:29;;;;;;;10.60;6.40;;;6.10;99.90;;;;;;5027956;28;20568;-67
2022/11/06 02:32:59;;;;;;;11.60;7.73;;;6.10;99.90;;;;;;5027980;28;20199;-67
2022/11/06 02:35:37;;;;;;;10.90;6.33;;;6.10;99.90;;;;;;5026397;28;20238;-67
2022/11/06 02:38:21;;;;;;;8.30;7.30;;;6.10;99.90;;;;;;5025454;28;20281;-67
2022/11/06 02:40:52;;;;;;;13.10;6.57;;;6.00;99.90;;;;;;5027587;28;20206;-67
2022/11/06 02:43:21;;;;;;;8.30;6.93;;;6.10;99.90;;;;;;5027200;28;20210;-67
2022/11/06 02:45:51;;;;;;;13.13;6.67;;;6.10;99.90;;;;;;5027468;28;20199;-67
2022/11/06 02:48:21;;;;;;;9.30;7.20;;;6.10;99.90;;;;;;5023814;28;20210;-66
2022/11/06 02:50:49;;;;;;;10.80;7.07;;;6.10;99.90;;;;;;5028022;28;20670;-66
2022/11/06 02:53:19;;;;;;;9.37;6.90;;;6.10;99.90;;;;;;5028030;28;20221;-66
2022/11/06 02:55:48;;;;;;;13.63;8.17;;;6.10;99.90;;;;;;5026901;28;20223;-63
2022/11/06 02:58:20;;;;;;;12.80;8.50;;;6.10;99.90;;;;;;5027595;28;20210;-67
2022/11/06 03:00:52;;;;;;;8.30;6.93;;;6.10;99.90;;;;;;5026780;28;20253;-66
2022/11/06 03:03:34;;;;;;;10.70;7.87;;;6.10;99.90;;;;;;5025626;28;20207;-65
2022/11/06 03:06:18;;;;;;;13.30;7.50;;;6.10;99.90;;;;;;5027819;28;20237;-66
2022/11/06 03:08:49;;;;;;;9.80;7.07;;;6.10;99.90;;;;;;5026762;28;20199;-67
2022/11/06 03:11:23;;;;;;;10.83;7.43;;;6.00;99.90;;;;;;5027329;28;20196;-67
2022/11/06 03:14:06;;;;;;;10.97;6.80;;;6.00;99.90;;;;;;5025673;28;20255;-66
2022/11/06 03:16:51;;;;;;;11.33;8.10;;;5.90;99.90;;;;;;5028834;28;20256;-67
2022/11/06 03:19:31;;;;;;;11.67;7.13;;;5.90;99.90;;;;;;5029053;28;20202;-66
2022/11/06 03:22:18;;;;;;;11.67;7.60;;;5.90;99.90;;;;;;5025145;28;20269;-67
2022/11/06 03:25:12;;;;;;;13.83;7.47;;;5.80;99.90;;;;;;5026191;28;20229;-66
2022/11/06 03:27:48;;;;;;;12.73;7.00;;;5.70;99.90;;;;;;5026998;28;20215;-66
2022/11/06 03:30:13;;;;;;;9.10;7.17;;;5.70;99.90;;;;;;5023985;28;20219;-65
2022/11/06 03:32:59;;;;;;;16.60;7.23;;;5.70;99.90;;;;;;5033494;28;20348;-66
2022/11/06 03:35:36;;;;;;;10.13;8.00;;;5.60;99.90;;;;;;5027418;28;20205;-67
2022/11/06 03:38:16;;;;;;;11.47;6.93;;;5.60;99.90;;;;;;5030308;28;20229;-67
2022/11/06 03:40:48;;;;;;;12.67;7.80;;;5.50;99.90;;;;;;5024350;28;20581;-67
2022/11/06 03:43:19;;;;;;;11.17;7.37;;;5.50;99.90;;;;;;5027260;28;20604;-67
2022/11/06 03:45:45;;;;;;;12.57;8.00;;;5.50;99.90;;;;;;5025004;28;20201;-67
2022/11/06 03:48:22;;;;;;;11.07;6.83;;;5.50;99.90;;;;;;5026526;28;20230;-67
2022/11/06 03:51:10;;;;;;;14.33;8.23;;;5.50;99.90;;;;;;5026616;28;20292;-68
2022/11/06 03:53:41;;;;;;;9.67;7.33;;;5.40;99.90;;;;;;5025158;28;20207;-68
2022/11/06 03:56:14;;;;;;;7.80;6.77;;;5.40;99.90;;;;;;5024360;28;20738;-66
2022/11/06 03:58:44;;;;;;;9.73;7.90;;;5.30;99.90;;;;;;5026055;28;20873;-65
2022/11/06 04:01:11;;;;;;;11.80;8.17;;;5.40;99.90;;;;;;5026285;28;20315;-65
2022/11/06 04:03:56;;;;;;;9.97;7.43;;;5.30;99.90;;;;;;5026403;28;20223;-65
2022/11/06 04:06:34;;;;;;;13.27;8.27;;;5.40;99.90;;;;;;5026943;28;20877;-65
2022/11/06 04:14:37;;;;;;;12.87;8.20;;;5.30;99.90;;;;;;5026779;28;20201;-66
2022/11/06 04:17:07;;;;;;;13.53;8.33;;;5.30;99.90;;;;;;5024412;28;20226;-67
2022/11/06 04:19:32;;;;;;;10.77;7.67;;;5.30;99.90;;;;;;5026019;28;20252;-66
2022/11/06 04:22:17;;;;;;;11.30;8.17;;;5.30;99.90;;;;;;5026402;28;20588;-67
2022/11/06 04:28:17;;;;;;;11.10;7.27;;;5.30;99.90;;;;;;5026109;28;20210;-66
2022/11/06 04:31:11;;;;;;;13.80;8.17;;;5.30;99.90;;;;;;5023678;28;20295;-66
2022/11/06 04:34:01;;;;;;;12.00;7.13;;;5.20;99.90;;;;;;5026148;28;20309;-66
2022/11/06 04:36:47;;;;;;;9.63;6.90;;;5.20;99.90;;;;;;5022062;28;20705;-66
2022/11/06 04:39:24;;;;;;;9.70;8.70;;;5.20;99.90;;;;;;5024047;28;20202;-66
2022/11/06 04:42:01;;;;;;;10.97;7.77;;;5.20;99.90;;;;;;5026032;28;20217;-66
2022/11/06 04:44:34;;;;;;;13.00;7.80;;;5.20;99.90;;;;;;5021793;28;20205;-66
2022/11/06 04:47:05;;;;;;;13.67;7.30;;;5.20;99.90;;;;;;5026530;28;20211;-66
2022/11/06 04:49:33;;;;;;;14.03;7.93;;;5.20;99.90;;;;;;5026312;28;20540;-66
2022/11/06 04:52:06;;;;;;;10.73;8.20;;;5.20;99.90;;;;;;5024622;28;20207;-66
2022/11/06 04:54:32;;;;;;;9.90;7.73;;;5.20;99.90;;;;;;5027055;28;20235;-66
2022/11/06 04:56:59;;;;;;;11.90;7.50;;;5.20;99.90;;;;;;5023646;28;20223;-66
2022/11/06 04:59:25;;;;;;;16.37;8.07;;;5.10;99.90;;;;;;5025372;28;20199;-65
2022/11/06 05:01:50;;;;;;;10.97;7.30;;;5.10;99.90;;;;;;5021427;28;20570;-66
2022/11/06 05:04:16;;;;;;;9.73;7.77;;;5.10;99.90;;;;;;5026132;28;20199;-66
2022/11/06 05:06:41;;;;;;;8.80;7.93;;;5.10;99.90;;;;;;5028392;28;20194;-66
2022/11/06 05:09:07;;;;;;;10.33;7.10;;;5.10;99.90;;;;;;5031215;28;20199;-66
2022/11/06 05:11:32;;;;;;;12.47;8.57;;;5.10;99.90;;;;;;5027732;28;20232;-66
2022/11/06 05:13:58;;;;;;;9.83;7.73;;;5.10;99.90;;;;;;5029248;28;20477;-67
2022/11/06 05:16:23;;;;;;;10.37;7.97;;;5.10;99.90;;;;;;5029082;28;20361;-65
2022/11/06 05:18:49;;;;;;;14.03;8.50;;;5.10;99.90;;;;;;5029357;28;20235;-65
2022/11/06 05:23:58;;;;;;;9.37;7.67;;;5.10;99.90;;;;;;5027065;28;20211;-66
2022/11/06 05:26:24;;;;;;;11.10;7.40;;;5.10;99.90;;;;;;5029324;28;20203;-65
2022/11/06 05:28:49;;;;;;;10.17;8.60;;;5.10;99.90;;;;;;5029694;28;20213;-63
2022/11/06 05:31:15;;;;;;;9.63;8.60;;;5.10;99.90;;;;;;5027437;28;20194;-65
2022/11/06 05:33:40;;;;;;;11.20;7.33;;;5.10;99.90;;;;;;5028551;28;20249;-64
2022/11/06 05:36:06;;;;;;;10.10;7.60;;;5.00;99.90;;;;;;5028681;28;20249;-67
2022/11/06 05:38:32;;;;;;;9.17;6.93;;;5.00;99.90;;;;;;5028627;28;20210;-66
2022/11/06 05:40:58;;;;;;;8.47;7.40;;;5.00;99.90;;;;;;5028909;28;20579;-66
2022/11/06 05:43:24;;;;;;;11.43;7.83;;;5.00;99.90;;;;;;5028537;28;20680;-65
2022/11/06 05:45:49;;;;;;;11.37;8.43;;;5.00;99.90;;;;;;5027345;28;20232;-64
2022/11/06 05:48:15;;;;;;;10.50;7.77;;;5.00;99.90;;;;;;5029783;28;20724;-65
2022/11/06 05:50:41;;;;;;;11.73;8.73;;;5.00;99.90;;;;;;5029655;28;20235;-65
2022/11/06 05:53:06;;;;;;;13.80;8.47;;;5.00;99.90;;;;;;5031144;28;20433;-66
2022/11/06 05:55:32;;;;;;;10.87;6.97;;;5.00;99.90;;;;;;5029371;28;20222;-65
2022/11/06 05:57:57;;;;;;;11.63;7.47;;;5.00;99.90;;;;;;5028867;28;20579;-65
2022/11/06 06:00:23;;;;;;;12.10;7.37;;;4.90;99.90;;;;;;5026026;28;20198;-64
2022/11/06 06:02:49;;;;;;;11.40;8.13;;;4.90;99.90;;;;;;5028116;28;20210;-64
2022/11/06 06:05:15;;;;;;;15.70;9.83;;;4.90;99.90;;;;;;5029692;28;20226;-64
2022/11/06 06:07:40;;;;;;;12.47;7.23;;;4.90;99.90;;;;;;5028033;28;20194;-65
2022/11/06 06:10:06;;;;;;;12.47;8.20;;;4.90;99.90;;;;;;5028660;28;20226;-65
2022/11/06 06:12:32;;;;;;;12.03;7.90;;;4.90;99.90;;;;;;5028019;28;20203;-65
2022/11/06 06:14:58;;;;;;;13.97;9.77;;;4.90;99.90;;;;;;5029886;28;20340;-65
2022/11/06 06:17:24;;;;;;;10.17;8.47;;;4.90;99.90;;;;;;5023587;28;20769;-65
2022/11/06 06:19:49;;;;;;;11.13;8.33;;;4.90;99.90;;;;;;5028567;28;20218;-66
2022/11/06 06:22:15;;;;;;;11.37;8.63;;;4.90;99.90;;;;;;5028350;28;20222;-66
2022/11/06 06:24:41;;;;;;;13.53;7.83;;;5.00;99.90;;;;;;5030357;28;20250;-66
2022/11/06 06:27:06;;;;;;;9.97;8.37;;;5.00;99.90;;;;;;5026769;28;20266;-65
2022/11/06 06:29:32;;;;;;;13.17;8.20;;;5.00;99.90;;;;;;5027783;28;20664;-66
2022/11/06 06:31:57;;;;;;;9.67;7.67;;;5.00;99.90;;;;;;5029852;28;20202;-66
2022/11/06 06:34:23;;;;;;;9.80;7.90;;;5.00;99.90;;;;;;5037822;28;20201;-65
2022/11/06 06:36:52;;;;;;;11.13;8.17;;;5.10;99.90;;;;;;5037635;28;20717;-66
2022/11/06 06:39:19;;;;;;;13.67;8.37;;;5.10;99.90;;;;;;5035940;28;20191;-65
2022/11/06 06:41:45;;;;;;;10.70;8.57;;;5.10;99.90;;;;;;5037724;28;20195;-66
2022/11/06 06:44:11;;;;;;;15.77;8.53;;;5.10;99.90;;;;;;5037527;28;20262;-65
2022/11/06 06:46:37;;;;;;;11.83;7.47;;;5.20;99.90;;;;;;5038035;28;20197;-67
2022/11/06 06:49:02;;;;;;;11.20;8.80;;;5.20;99.90;;;;;;5037801;28;20195;-65
2022/11/06 06:51:28;;;;;;;10.00;7.77;;;5.30;99.90;;;;;;5035308;28;20199;-65
2022/11/06 06:53:54;;;;;;;13.90;7.87;;;5.30;99.90;;;;;;5037711;28;20211;-66
2022/11/06 06:56:19;;;;;;;11.53;8.27;;;5.40;99.90;;;;;;5037347;28;20195;-65
2022/11/06 06:58:45;;;;;;;14.23;9.07;;;5.50;99.90;;;;;;5028734;28;20282;-65
2022/11/06 07:01:10;;;;;;;15.57;8.07;;;5.50;99.90;;;;;;5027097;28;20200;-65
2022/11/06 07:03:37;;;;;;;10.03;7.93;;;5.60;99.90;;;;;;5027497;28;20235;-65
2022/11/06 07:06:03;;;;;;;9.07;7.23;;;5.70;99.90;;;;;;5025384;28;20733;-64
2022/11/06 07:08:29;;;;;;;11.73;7.50;;;5.70;99.90;;;;;;5027313;28;20257;-65
2022/11/06 07:11:07;;;;;;;11.33;8.20;;;5.80;99.90;;;;;;5028055;28;20203;-65
2022/11/06 07:13:34;;;;;;;8.40;7.57;;;5.80;99.90;;;;;;5025542;28;20202;-65
2022/11/06 07:16:06;;;;;;;10.23;7.30;;;5.80;99.90;;;;;;5026994;28;20220;-64
2022/11/06 07:18:32;;;;;;;11.13;7.30;;;5.80;99.90;;;;;;5026530;28;20207;-65
2022/11/06 07:20:58;;;;;;;12.70;8.23;;;5.90;99.90;;;;;;5026581;28;20200;-64
2022/11/06 07:23:23;;;;;;;9.63;7.30;;;5.90;99.90;;;;;;5031169;28;20689;-65
2022/11/06 07:25:53;;;;;;;9.33;8.43;;;5.90;99.90;;;;;;5020615;28;20211;-64
2022/11/06 07:28:18;;;;;;;8.63;7.47;;;5.90;99.90;;;;;;5030700;28;20195;-65
2022/11/06 07:30:44;;;;;;;10.53;8.63;;;5.90;99.90;;;;;;5025652;28;20650;-65
2022/11/06 07:33:09;;;;;;;11.83;7.50;;;6.00;99.90;;;;;;5025461;28;20206;-64
2022/11/06 07:35:35;;;;;;;10.63;7.73;;;6.00;99.90;;;;;;5026434;28;20264;-64
2022/11/06 07:38:05;;;;;;;13.90;8.23;;;6.10;99.90;;;;;;5025238;28;20641;-63
2022/11/06 07:40:31;;;;;;;9.03;7.20;;;6.10;99.90;;;;;;5026072;28;20252;-64
2022/11/06 07:43:02;;;;;;;8.57;7.13;;;6.20;99.90;;;;;;5026211;28;20709;-66
2022/11/06 07:45:28;;;;;;;10.30;8.07;;;6.20;99.90;;;;;;5026192;28;20192;-65
2022/11/06 07:47:55;;;;;;;8.87;7.33;;;6.20;99.90;;;;;;5025023;28;20249;-66
2022/11/06 07:50:21;;;;;;;11.50;8.13;;;6.30;99.90;;;;;;5027531;28;20573;-66
2022/11/06 07:52:46;;;;;;;10.10;7.47;;;6.30;99.90;;;;;;5026956;28;20678;-65
2022/11/06 07:55:11;;;;;;;8.40;7.53;;;6.40;99.90;;;;;;5027315;28;20299;-66
2022/11/06 07:57:38;;;;;;;9.50;7.80;;;6.40;99.90;;;;;;5027354;28;20802;-67
2022/11/06 08:00:05;;;;;;;8.90;7.77;;;6.50;99.90;;;;;;5024263;28;20203;-64
2022/11/06 08:02:31;;;;;;;10.20;7.23;;;6.50;99.90;;;;;;5026247;28;20746;-65
2022/11/06 08:04:56;;;;;;;7.93;6.67;;;6.60;99.90;;;;;;5026531;28;20195;-65
2022/11/06 08:07:21;;;;;;;9.53;8.20;;;6.60;99.90;;;;;;5026837;28;20207;-65
2022/11/06 08:09:47;;;;;;;9.90;7.47;;;6.70;99.90;;;;;;5025061;28;20241;-65
2022/11/06 08:12:13;;;;;;;11.90;8.27;;;6.70;99.90;;;;;;5030479;28;20195;-65
2022/11/06 08:14:39;;;;;;;10.83;7.67;;;6.70;99.90;;;;;;5034477;28;20210;-65
2022/11/06 08:17:04;;;;;;;9.70;8.00;;;6.80;99.90;;;;;;5036549;28;20298;-65
2022/11/06 08:19:30;;;;;;;10.83;8.13;;;6.90;99.90;;;;;;5036153;28;20858;-65
2022/11/06 08:21:55;;;;;;;11.37;8.63;;;6.90;99.90;;;;;;5036339;28;20187;-65
2022/11/06 08:24:21;;;;;;;12.27;8.00;;;7.00;99.90;;;;;;5036446;28;20220;-65
2022/11/06 08:26:46;;;;;;;10.30;7.20;;;7.00;99.90;;;;;;5034482;28;20195;-64
2022/11/06 08:29:12;;;;;;;7.93;7.20;;;7.10;99.90;;;;;;5035944;28;20199;-66
2022/11/06 08:31:38;;;;;;;10.33;7.57;;;7.20;99.90;;;;;;5036330;28;20199;-66
2022/11/06 08:34:04;;;;;;;9.90;8.10;;;7.30;99.90;;;;;;5036227;28;20198;-66
2022/11/06 08:36:29;;;;;;;9.73;7.40;;;7.40;99.90;;;;;;5034272;28;20637;-66
2022/11/06 08:38:55;;;;;;;8.80;7.90;;;7.40;99.90;;;;;;5034450;28;20801;-66
2022/11/06 08:41:20;;;;;;;9.90;7.97;;;7.50;99.90;;;;;;5027472;28;20220;-66
2022/11/06 08:43:50;;;;;;;7.93;7.13;;;7.60;99.90;;;;;;5029850;28;20195;-66
2022/11/06 08:46:16;;;;;;;10.47;7.47;;;7.60;99.90;;;;;;5029383;28;20207;-67
2022/11/06 08:48:41;;;;;;;9.63;7.47;;;7.70;99.90;;;;;;5028016;28;20268;-65
2022/11/06 08:51:07;;;;;;;10.03;7.63;;;7.70;99.90;;;;;;5030728;28;20257;-66
2022/11/06 08:53:33;;;;;;;9.20;7.63;;;7.70;99.90;;;;;;5030043;28;20210;-66
2022/11/06 08:56:00;;;;;;;10.53;7.30;;;7.80;99.90;;;;;;5030170;28;20228;-66
2022/11/06 08:58:26;;;;;;;8.10;7.00;;;7.80;99.90;;;;;;5029945;28;20261;-66
2022/11/06 09:00:51;;;;;;;11.57;7.73;;;7.90;99.90;;;;;;5030168;28;20212;-67
2022/11/06 09:03:17;;;;;;;8.20;7.17;;;7.90;99.90;;;;;;5028070;28;20210;-67
2022/11/06 09:05:43;;;;;;;7.90;6.70;;;8.00;99.90;;;;;;5030163;28;20198;-67
2022/11/06 09:08:09;;;;;;;7.97;7.20;;;8.00;99.90;;;;;;5027765;28;20211;-68
2022/11/06 09:10:39;;;;;;;9.00;7.03;;;8.00;99.90;;;;;;5029496;28;20381;-67
2022/11/06 09:13:05;;;;;;;7.73;6.93;;;8.10;99.90;;;;;;5033054;28;20206;-68
2022/11/06 09:15:31;;;;;;;8.67;7.50;;;8.10;99.90;;;;;;5032763;28;20259;-68
2022/11/06 09:17:56;;;;;;;12.00;7.77;;;8.10;99.90;;;;;;5029201;28;20220;-68
2022/11/06 09:20:23;;;;;;;10.67;8.13;;;8.20;99.90;;;;;;5029504;28;20286;-68
2022/11/06 09:22:49;;;;;;;8.73;7.67;;;8.20;99.90;;;;;;5029930;28;20209;-69
2022/11/06 09:25:15;;;;;;;8.03;7.17;;;8.30;99.90;;;;;;5029615;28;20554;-69
2022/11/06 09:27:46;;;;;;;9.87;7.53;;;8.30;99.90;;;;;;5027325;28;20203;-69
2022/11/06 09:30:13;;;;;;;8.83;7.27;;;8.40;99.90;;;;;;5028980;28;20214;-69
2022/11/06 09:32:45;;;;;;;8.67;7.03;;;8.40;99.90;;;;;;5028652;28;20200;-68
2022/11/06 09:35:11;;;;;;;9.93;7.50;;;8.40;99.90;;;;;;5025694;28;20210;-68
2022/11/06 09:37:36;;;;;;;8.50;6.70;;;8.50;99.90;;;;;;5029173;28;20215;-68
2022/11/06 09:40:03;;;;;;;10.00;6.53;;;8.50;99.90;;;;;;5029498;28;20258;-68
2022/11/06 09:42:53;;;;;;;10.37;6.60;;;8.60;99.90;;;;;;5029605;28;21140;-67
2022/11/06 09:45:23;;;;;;;10.57;7.07;;;8.60;99.90;;;;;;5028805;28;20228;-62
2022/11/06 09:48:08;;;;;;;9.03;6.43;;;8.70;99.90;;;;;;5028767;28;20686;-63
2022/11/06 09:50:50;;;;;;;8.77;6.27;;;8.80;99.90;;;;;;5026057;28;20353;-63
2022/11/06 09:53:30;;;;;;;7.60;6.63;;;8.80;99.90;;;;;;5026166;28;20226;-68
2022/11/06 09:55:57;;;;;;;11.20;7.17;;;8.80;99.90;;;;;;5027698;28;20280;-60
2022/11/06 09:58:29;;;;;;;7.63;6.00;;;9.00;99.90;;;;;;5025929;28;20227;-59
2022/11/06 10:00:55;;;;;;;11.33;6.77;;;9.10;99.90;;;;;;5028840;28;20698;-59
2022/11/06 10:03:31;;;;;;;9.27;6.27;;;9.20;99.90;;;;;;5029206;28;20203;-59
2022/11/06 10:05:56;;;;;;;8.47;6.00;;;9.40;99.90;;;;;;5025161;28;20571;-59
2022/11/06 10:08:27;;;;;;;8.83;6.33;;;9.50;99.90;;;;;;5028781;28;20204;-59
2022/11/06 10:11:01;;;;;;;8.87;6.17;;;9.60;99.90;;;;;;5029044;28;20741;-60
2022/11/06 10:13:55;;;;;;;6.00;5.50;;;9.60;99.90;;;;;;5021997;28;20704;-59
2022/11/06 10:16:51;;;;;;;8.10;5.43;;;9.80;99.90;;;;;;5028501;28;20213;-61
2022/11/06 10:19:35;;;;;;;8.80;6.27;;;9.90;99.90;;;;;;5026945;28;20209;-59
2022/11/06 10:22:14;;;;;;;7.70;5.83;;;10.00;99.90;;;;;;5026759;28;20199;-59
2022/11/06 10:25:18;;;;;;;8.77;5.23;;;10.10;99.90;;;;;;5030089;28;20216;-58
2022/11/06 10:28:21;;;;;;;6.47;5.43;;;10.20;99.90;;;;;;5031240;28;20752;-59
2022/11/06 10:31:10;;;;;;;7.97;5.20;;;10.30;99.90;;;;;;5036339;28;20210;-59
2022/11/06 10:33:51;;;;;;;6.20;4.90;;;10.40;99.90;;;;;;5036035;28;20676;-59
2022/11/06 10:36:22;;;;;;;9.80;4.80;;;10.50;99.90;;;;;;5038216;28;20207;-59
2022/11/06 10:38:49;;;;;;;8.40;5.03;;;10.60;99.90;;;;;;5037780;28;20335;-59
2022/11/06 10:41:21;;;;;;;6.17;4.27;;;10.80;99.90;;;;;;5035128;28;20307;-58
2022/11/06 10:43:56;;;;;;;6.13;4.53;;;10.90;99.90;;;;;;5037462;28;20191;-58
2022/11/06 10:46:28;;;;;;;7.67;4.33;;;11.00;99.90;;;;;;5038695;28;20202;-59
2022/11/06 10:49:00;;;;;;;7.70;5.40;;;11.00;99.90;;;;;;5029406;28;20209;-58
2022/11/06 10:51:34;;;;;;;6.00;4.13;;;11.10;99.90;;;;;;5035631;28;20661;-61
2022/11/06 10:54:14;;;;;;;5.50;5.00;;;11.20;99.90;;;;;;5036812;28;21005;-60
2022/11/06 10:57:07;;;;;;;5.50;4.97;;;11.30;99.90;;;;;;5036802;28;20726;-58
2022/11/06 10:59:33;;;;;;;9.23;5.10;;;11.40;99.90;;;;;;5037267;28;20342;-59
2022/11/06 11:01:58;;;;;;;5.20;4.70;;;11.50;99.90;;;;;;5037044;28;20294;-59
2022/11/06 11:04:24;;;;;;;6.07;5.13;;;11.60;99.90;;;;;;5039336;28;20292;-60
2022/11/06 11:06:49;;;;;;;5.00;4.40;;;11.70;99.90;;;;;;5032080;28;20292;-60
2022/11/06 11:09:28;;;;;;;6.20;4.50;;;11.80;99.90;;;;;;5023782;28;20977;-60
2022/11/06 11:11:54;;;;;;;6.03;4.43;;;11.90;99.90;;;;;;5027252;28;20613;-60
2022/11/06 11:14:30;;;;;;;7.93;5.70;;;12.10;99.90;;;;;;5025276;28;20712;-61
2022/11/06 11:17:00;;;;;;;5.27;4.53;;;12.20;99.90;;;;;;5027100;28;20204;-62
2022/11/06 11:19:37;;;;;;;6.27;4.30;;;12.40;99.90;;;;;;5032592;28;20310;-58
2022/11/06 11:22:15;;;;;;;5.60;4.43;;;12.50;99.90;;;;;;5027408;28;20223;-58
2022/11/06 11:25:06;;;;;;;5.60;4.43;;;12.60;99.90;;;;;;5025277;28;20208;-59
2022/11/06 11:27:36;;;;;;;7.23;4.53;;;12.90;99.90;;;;;;5022531;28;20203;-60
2022/11/06 11:30:03;;;;;;;7.57;4.97;;;13.10;99.90;;;;;;5022705;28;20684;-59
2022/11/06 11:32:30;;;;;;;7.03;4.67;;;13.30;99.90;;;;;;5031999;28;20252;-60
2022/11/06 11:34:56;;;;;;;4.83;3.97;;;13.50;99.90;;;;;;5032186;28;20212;-58
2022/11/06 11:37:31;;;;;;;5.70;4.50;;;13.60;99.90;;;;;;5035449;28;20241;-62
2022/11/06 11:40:19;;;;;;;7.37;4.43;;;13.80;99.90;;;;;;5035591;28;20210;-58
2022/11/06 11:42:45;;;;;;;5.70;4.70;;;14.00;99.90;;;;;;5035081;28;20214;-58
2022/11/06 11:45:13;;;;;;;6.80;4.40;;;14.30;99.90;;;;;;5036655;28;20217;-69
2022/11/06 11:47:45;;;;;;;5.23;3.97;;;14.40;99.90;;;;;;5037960;28;20678;-64
2022/11/06 11:50:25;;;;;;;5.83;4.43;;;14.50;99.90;;;;;;5035432;28;20205;-64
2022/11/06 11:53:17;;;;;;;6.10;3.90;;;14.50;99.90;;;;;;5031689;28;20206;-64
2022/11/06 11:55:46;;;;;;;6.20;4.23;;;14.70;99.90;;;;;;5032719;28;20783;-63
2022/11/06 11:58:25;;;;;;;4.27;3.37;;;14.90;99.90;;;;;;5036719;28;20226;-63
2022/11/06 12:00:54;;;;;;;5.77;3.87;;;15.00;99.90;;;;;;5021098;28;20214;-63
2022/11/06 12:03:22;;;;;;;4.43;3.80;;;15.20;99.80;;;;;;5026127;28;20291;-63
2022/11/06 12:05:48;;;;;;;7.50;4.20;;;15.10;99.80;;;;;;5022628;28;20242;-63
2022/11/06 12:08:22;;;;;;;4.53;3.53;;;15.00;99.80;;;;;;5029638;28;20270;-64
2022/11/06 12:10:48;;;;;;;5.43;3.30;;;15.10;99.50;;;;;;5025263;28;20206;-64
2022/11/06 12:13:19;;;;;;;5.87;3.73;;;15.10;99.70;;;;;;5025799;28;20214;-64
2022/11/06 12:15:51;;;;;;;4.93;3.30;;;15.50;99.50;;;;;;5024525;28;20195;-64
2022/11/06 12:18:31;;;;;;;7.30;3.97;;;16.00;99.30;;;;;;5021113;28;20227;-64
2022/11/06 12:21:18;;;;;;;5.47;3.67;;;16.80;98.00;;;;;;5025837;28;20197;-64
2022/11/06 12:23:54;;;;;;;4.17;3.33;;;17.20;96.80;;;;;;5034440;28;20327;-64
2022/11/06 12:26:45;;;;;;;7.00;3.53;;;17.40;95.50;;;;;;5032891;28;20203;-63
2022/11/06 12:29:20;;;;;;;4.40;3.27;;;17.20;95.50;;;;;;5037536;28;20194;-64
2022/11/06 12:31:55;;;;;;;3.57;2.83;;;17.00;95.30;;;;;;5034376;28;20213;-64
2022/11/06 12:34:32;;;;;;;3.93;2.70;;;16.80;96.00;;;;;;5034757;28;20248;-64
2022/11/06 12:37:30;;;;;;;5.43;3.20;;;17.10;95.00;;;;;;5032686;28;20323;-64
2022/11/06 12:40:17;;;;;;;6.30;3.10;;;17.40;94.10;;;;;;5039742;28;20301;-64
2022/11/06 12:43:11;;;;;;;6.23;3.00;;;17.50;93.80;;;;;;5031672;28;20721;-64
2022/11/06 12:45:52;;;;;;;6.07;3.47;;;17.40;93.60;;;;;;5037460;28;20309;-64
2022/11/06 12:48:43;;;;;;;9.03;3.23;;;17.40;93.60;;;;;;5034764;28;21078;-64
2022/11/06 12:51:08;;;;;;;3.50;2.90;;;17.60;93.20;;;;;;5024941;28;20227;-64
2022/11/06 12:53:58;;;;;;;5.40;2.90;;;17.50;93.40;;;;;;5027592;28;20735;-64
2022/11/06 12:56:42;;;;;;;3.30;2.83;;;17.70;93.10;;;;;;5023984;28;20219;-64
2022/11/06 12:59:35;;;;;;;4.10;3.07;;;17.90;92.20;;;;;;5027496;28;20219;-64
2022/11/06 13:02:39;;;;;;;2.97;2.47;;;18.30;91.60;;;;;;5024269;28;20257;-64
2022/11/06 13:05:22;;;;;;;4.00;2.37;;;18.10;91.30;;;;;;5029293;28;20210;-64
2022/11/06 13:08:29;;;;;;;8.90;3.20;;;18.10;91.30;;;;;;5024855;28;20215;-65
2022/11/06 13:11:20;;;;;;;2.57;2.37;;;18.60;91.00;;;;;;5024910;28;20271;-64
2022/11/06 13:13:54;;;;;;;4.50;3.00;;;19.30;90.00;;;;;;5023296;28;20202;-63
2022/11/06 13:16:51;;;;;;;4.33;2.57;;;19.60;87.90;;;;;;5025251;28;20206;-64
2022/11/06 13:19:30;;;;;;;4.00;2.70;;;19.60;87.50;;;;;;5023314;28;20205;-64
2022/11/06 13:22:08;;;;;;;4.73;2.97;;;19.70;86.30;;;;;;5023471;28;20206;-63
2022/11/06 13:24:45;;;;;;;3.13;2.60;;;19.90;85.30;;;;;;5024971;28;20198;-64
2022/11/06 13:27:37;;;;;;;6.97;2.50;;;20.30;84.80;;;;;;5026134;28;20206;-64